createdAt,value
2023-05-07T00:03:11.965Z,3.4
2023-05-07T00:08:57.644Z,3.8
2023-05-07T00:14:43.914Z,3.3
2023-05-07T00:20:28.717Z,3.2
2023-05-07T00:26:13.374Z,4.2
2023-05-07T00:31:58.491Z,3.6
2023-05-07T00:37:46.088Z,3.7
2023-05-07T00:43:31.617Z,4.1
2023-05-07T00:49:16.379Z,3.4
2023-05-07T00:55:01.340Z,4.6
2023-05-07T01:00:46.171Z,5.5
2023-05-07T01:06:32.625Z,3.9
2023-05-07T01:12:17.672Z,4
2023-05-07T01:18:02.776Z,4.5
2023-05-07T01:23:48.692Z,3.5
2023-05-07T01:29:33.645Z,4
2023-05-07T01:35:22.884Z,4.2
2023-05-07T01:41:08.072Z,3.1
2023-05-07T01:46:53.551Z,5.1
2023-05-07T01:52:38.791Z,3.7
2023-05-07T01:58:23.489Z,3.9
2023-05-07T02:04:09.175Z,3.4
2023-05-07T02:09:53.867Z,3.5
2023-05-07T02:15:39.493Z,3.9
2023-05-07T02:21:24.686Z,3.3
2023-05-07T02:27:09.392Z,3.5
2023-05-07T02:32:54.538Z,3.6
2023-05-07T02:38:39.447Z,5
2023-05-07T02:44:24.124Z,3.3
2023-05-07T02:50:09.877Z,3.6
2023-05-07T02:55:54.754Z,4.2
2023-05-07T03:01:39.683Z,4.6
2023-05-07T03:07:24.400Z,3.8
2023-05-07T03:13:09.846Z,4.3
2023-05-07T03:18:54.819Z,4.5
2023-05-07T03:24:39.691Z,4.7
2023-05-07T03:30:24.660Z,3.7
2023-05-07T03:36:09.694Z,6.1
2023-05-07T03:41:55.379Z,4.5
2023-05-07T03:47:40.195Z,5.1
2023-05-07T03:53:24.879Z,3.9
2023-05-07T03:59:09.463Z,5
2023-05-07T04:04:54.337Z,3.9
2023-05-07T04:10:39.146Z,4.7
2023-05-07T04:16:24.183Z,4.6
2023-05-07T04:22:08.890Z,3.8
2023-05-07T04:27:54.188Z,3.6
2023-05-07T04:33:39.953Z,4.2
2023-05-07T04:39:24.894Z,5.2
2023-05-07T04:45:10.402Z,4.2
2023-05-07T04:50:55.969Z,4.3
2023-05-07T04:56:40.669Z,4.3
2023-05-07T05:02:25.849Z,3.8
2023-05-07T05:08:11.040Z,4
2023-05-07T05:13:55.699Z,4.2
2023-05-07T05:19:40.632Z,4.3
2023-05-07T05:25:25.472Z,4.8
2023-05-07T05:31:10.366Z,4.2
2023-05-07T05:36:55.225Z,4.1
2023-05-07T05:42:39.936Z,5.6
2023-05-07T05:48:24.567Z,6
2023-05-07T05:54:09.418Z,4.5
2023-05-07T05:59:54.770Z,4.4
2023-05-07T06:05:39.403Z,4
2023-05-07T06:11:24.192Z,4.6
2023-05-07T06:17:09.142Z,4.8
2023-05-07T06:22:53.876Z,5.4
2023-05-07T06:28:38.719Z,4.7
2023-05-07T06:34:23.437Z,4.1
2023-05-07T06:40:09.585Z,4.1
2023-05-07T06:45:55.083Z,4.3
2023-05-07T06:51:39.844Z,5.1
2023-05-07T06:57:24.625Z,4.9
2023-05-07T07:03:10.393Z,5.3
2023-05-07T07:08:55.129Z,5
2023-05-07T07:14:39.792Z,3.1
2023-05-07T07:20:24.736Z,4.9
2023-05-07T07:26:09.664Z,4.8
2023-05-07T07:31:54.662Z,4.9
2023-05-07T07:37:39.357Z,5
2023-05-07T07:43:24.172Z,3.4
2023-05-07T07:49:08.985Z,4.5
2023-05-07T07:54:53.732Z,3.2
2023-05-07T08:00:38.770Z,3.7
2023-05-07T08:06:23.569Z,3.3
2023-05-07T08:12:08.959Z,3.5
2023-05-07T08:17:54.002Z,2.4
2023-05-07T08:23:38.912Z,4.7
2023-05-07T08:29:25.412Z,4
2023-05-07T08:35:10.466Z,3.2
2023-05-07T08:40:55.245Z,3.7
2023-05-07T08:46:40.212Z,3.8
2023-05-07T08:52:25.868Z,5.3
2023-05-07T08:58:10.509Z,3
2023-05-07T09:03:56.559Z,2.6
2023-05-07T09:09:43.691Z,3.4
2023-05-07T09:15:28.617Z,3
2023-05-07T09:21:13.620Z,3.2
2023-05-07T09:26:58.631Z,3
2023-05-07T09:32:43.963Z,3.8
2023-05-07T09:38:30.007Z,2.9
2023-05-07T09:44:14.837Z,4.3
2023-05-07T09:50:00.616Z,2.7
2023-05-07T09:55:46.119Z,3.4
2023-05-07T10:01:31.385Z,2.8
2023-05-07T10:07:16.823Z,3
2023-05-07T10:13:01.733Z,4.5
2023-05-07T10:18:47.800Z,3.9
2023-05-07T10:24:37.036Z,3.7
2023-05-07T10:30:35.508Z,3.7
2023-05-07T10:36:22.536Z,4.1
2023-05-07T10:42:16.345Z,2.5
2023-05-07T10:48:29.943Z,2.6
2023-05-07T10:54:27.516Z,3.4
2023-05-07T11:00:38.425Z,4.1
2023-05-07T11:06:20.651Z,2.4
2023-05-07T11:12:05.656Z,3.4
2023-05-07T11:18:01.859Z,2.6
2023-05-07T11:24:05.427Z,2.6
2023-05-07T11:29:50.940Z,3.2
2023-05-07T11:35:39.276Z,2.7
2023-05-07T11:41:24.309Z,2.4
2023-05-07T11:47:10.075Z,3.2
2023-05-07T11:52:58.541Z,2.8
2023-05-07T11:58:44.639Z,1.9
2023-05-07T12:04:34.234Z,2.5
2023-05-07T12:10:19.799Z,1.9
2023-05-07T12:16:04.765Z,2.6
2023-05-07T12:21:50.349Z,2.2
2023-05-07T12:27:35.159Z,1.9
2023-05-07T12:33:20.764Z,2.9
2023-05-07T12:39:05.648Z,2.9
2023-05-07T12:44:50.924Z,2.4
2023-05-07T12:50:35.578Z,2
2023-05-07T12:56:20.478Z,2.1
2023-05-07T13:02:05.574Z,1.9
2023-05-07T13:08:01.321Z,2
2023-05-07T13:13:46.194Z,1.7
2023-05-07T13:19:33.927Z,3.1
2023-05-07T13:25:19.007Z,1.5
2023-05-07T13:31:03.824Z,2.7
2023-05-07T13:36:48.622Z,1.6
2023-05-07T13:42:33.202Z,1.9
2023-05-07T13:48:18.045Z,2
2023-05-07T13:54:02.812Z,1.7
2023-05-07T13:59:47.727Z,1.3
2023-05-07T14:05:32.537Z,2
2023-05-07T14:11:17.305Z,1.7
2023-05-07T14:17:01.982Z,2.1
2023-05-07T14:22:46.758Z,3.9
2023-05-07T14:28:31.634Z,1.9
2023-05-07T14:34:16.004Z,2.4
2023-05-07T14:40:00.703Z,2.1
2023-05-07T14:45:45.391Z,1.3
2023-05-07T14:51:31.084Z,1.4
2023-05-07T14:57:15.784Z,1.8
2023-05-07T15:03:05.654Z,1.4
2023-05-07T15:08:50.307Z,2
2023-05-07T15:14:35.049Z,1.7
2023-05-07T15:20:20.006Z,1.9
2023-05-07T15:26:04.748Z,1.7
2023-05-07T15:31:49.735Z,1
2023-05-07T15:37:34.523Z,1.3
2023-05-07T15:43:19.376Z,1.4
2023-05-07T15:49:05.999Z,1.3
2023-05-07T15:54:50.709Z,1.7
2023-05-07T16:00:35.497Z,1.1
2023-05-07T16:06:20.113Z,1.6
2023-05-07T16:12:04.767Z,1.7
2023-05-07T16:17:50.269Z,1.4
2023-05-07T16:23:35.157Z,1.1
2023-05-07T16:29:20.068Z,1.1
2023-05-07T16:35:04.855Z,1.6
2023-05-07T16:40:49.885Z,1.2
2023-05-07T16:46:34.662Z,1.2
2023-05-07T16:52:19.282Z,1.5
2023-05-07T16:58:03.916Z,1.4
2023-05-07T17:03:49.045Z,1.2
2023-05-07T17:09:33.861Z,1.6
2023-05-07T17:15:18.932Z,1.5
2023-05-07T17:21:03.597Z,1.4
2023-05-07T17:26:48.110Z,1.5
2023-05-07T17:32:33.055Z,1.8
2023-05-07T17:38:17.632Z,1.7
2023-05-07T17:44:02.320Z,1.8
2023-05-07T17:49:47.113Z,1.8
2023-05-07T17:55:32.015Z,1.7
2023-05-07T18:01:16.942Z,2.1
2023-05-07T18:07:01.848Z,2.4
2023-05-07T18:12:46.759Z,2.6
2023-05-07T18:18:31.612Z,2
2023-05-07T18:24:16.522Z,1.9
2023-05-07T18:30:01.365Z,2.3
2023-05-07T18:35:46.205Z,2.6
2023-05-07T18:41:31.157Z,2.7
2023-05-07T18:47:16.891Z,2.3
2023-05-07T18:53:02.724Z,2.2
2023-05-07T18:58:47.461Z,2.3
2023-05-07T19:04:32.683Z,2.2
2023-05-07T19:10:17.949Z,3.1
2023-05-07T19:16:03.240Z,3.5
2023-05-07T19:21:48.256Z,3.6
2023-05-07T19:27:33.242Z,3.6
2023-05-07T19:33:18.332Z,2.6
2023-05-07T19:39:02.912Z,2.5
2023-05-07T19:44:47.635Z,3
2023-05-07T19:50:32.335Z,2.5
2023-05-07T19:56:17.109Z,2.5
2023-05-07T20:02:02.439Z,2.7
2023-05-07T20:07:49.479Z,3.5
2023-05-07T20:13:34.359Z,2.7
2023-05-07T20:19:19.635Z,3.1
2023-05-07T20:25:04.388Z,2.4
2023-05-07T20:30:49.779Z,2.4
2023-05-07T20:36:34.666Z,2.9
2023-05-07T20:42:19.373Z,2.8
2023-05-07T20:48:04.554Z,3.2
2023-05-07T20:53:51.305Z,2.7
2023-05-07T20:59:36.224Z,3.5
2023-05-07T21:05:21.279Z,2.7
2023-05-07T21:11:05.825Z,2.9
2023-05-07T21:16:51.009Z,2.6
2023-05-07T21:22:35.966Z,3.1
2023-05-07T21:28:20.743Z,2.5
2023-05-07T21:34:05.204Z,3.8
2023-05-07T21:39:49.924Z,2.8
2023-05-07T21:45:34.682Z,2.9
2023-05-07T21:51:25.984Z,3.5
2023-05-07T21:57:12.413Z,4.1
2023-05-07T22:02:57.646Z,3.7
2023-05-07T22:08:42.448Z,3.1
2023-05-07T22:14:28.128Z,3.4
2023-05-07T22:20:15.263Z,2.8
2023-05-07T22:26:01.276Z,2.6
2023-05-07T22:31:46.474Z,2.7
2023-05-07T22:37:31.145Z,3.2
2023-05-07T22:43:16.104Z,2.4
2023-05-07T22:49:00.983Z,3.6
2023-05-07T22:54:46.001Z,3.1
2023-05-07T23:00:31.015Z,2.9
2023-05-07T23:06:15.820Z,2.9
2023-05-07T23:12:00.471Z,2.8
2023-05-07T23:17:45.525Z,2.9
2023-05-07T23:23:30.466Z,2.9
2023-05-07T23:29:15.328Z,2.6
2023-05-07T23:35:00.069Z,2.6
2023-05-07T23:40:44.897Z,2.7
2023-05-07T23:46:29.762Z,2.7
2023-05-07T23:52:14.895Z,3.6
2023-05-07T23:57:59.504Z,2.7
